Terminal Aerodrome Forecast
Issued by NWS

Home | Current Version | Previous Version | Text Only | Print | Product List | Glossary On
Versions: 1 2 3 4 5 6 7 8 9 10 11 12 13 14 15 16 17 18 19 20 21 22 23 24
000
FTUS41 KBOX 231738
TAFHYA
TAF
KHYA 231738Z 2318/2418 24015KT P6SM SCT100
     FM232200 22008KT P6SM SCT200
     FM240600 18006KT P6SM BKN200
     FM240900 16010G25KT P6SM BKN090
     FM241000 16012G29KT P6SM RA OVC070
     FM241200 16016G38KT 2SM +RA OVC008 WS020/17045KT
     FM241700 19017G40KT P6SM OVC010=

USA.gov is the U.S. government's official web portal to all federal, state and local government web resources and services.